Portada
METAR-TAF:

METAR-TAF

Aeropuertos :

Cayena, Guayana Francesa

Aeropuerto de Cayenne-Rochambeau

latitud: 04-50N, longitud: 052-22W, altitud: 105 m

Observación

El informe se hizo hace 25 minutos, a las 00:00 UTC
Viento 4 kt del este
Temperatura 26°C
Humedad 89%
Presión 1010 hPa
Visibilidad 10 km o más
Escasas nubes a una altura de 2000 ft

METAR: SOCA 200000Z AUTO 09004KT 9999 FEW020 26/24 Q1010 NOSIG

Hora: 21:25 (00:25 UTC)

Pronóstico

El informe se hizo hace 1 hora y 25 minutos, a las 23:00 UTC
Pronóstico válido del 20 a las 00 UTC al 20 a las 24 UTC
Viento 2 kt con dirección variable
Visibilidad 10 km o más
Escasas nubes a una altura de 2000 ft
A partir de las 20 a las 1400 UTC
Viento 10 kt del este-noreste
Visibilidad 10 km o más
Nubes dispersas a una altura de 3500 ft

TAF: SOCA 192300Z 2000/2024 VRB02KT 9999 FEW020 FM201400 07010KT 9999 SCT035

Observaciones y pronósticos meteorológicos de más de 4000 aeropuertos (mensajes METAR y TAF).

Los puntos amarillos y rojos representan las estaciones disponibles.

Ponga el ratón en el punto deseado para ver el nombre de la estación.

Haga clic para ver las observaciones y los pronósticos meteorológicos.

Para cambiar el mapa : haga clic en los botones verdes con una cruz de color negro para hacer un zoom, en el botón verde con un guión para alejar o en las flechas verdes para mapas adyacentes.


METAR-TAF: